createdAt,value
2023-05-14T00:00:06.398Z,48
2023-05-14T00:00:36.852Z,49
2023-05-14T00:01:08.724Z,50
2023-05-14T00:01:36.110Z,50
2023-05-14T00:01:56.213Z,50
2023-05-14T00:02:28.427Z,51
2023-05-14T00:03:00.311Z,51
2023-05-14T00:03:32.623Z,51
2023-05-14T00:04:03.997Z,51
2023-05-14T00:04:39.046Z,51
2023-05-14T00:05:08.970Z,51
2023-05-14T00:05:36.286Z,51
2023-05-14T00:05:56.509Z,52
2023-05-14T00:06:28.359Z,52
2023-05-14T00:07:00.154Z,54
2023-05-14T00:07:32.741Z,54
2023-05-14T00:08:04.007Z,54
2023-05-14T00:08:36.337Z,54
2023-05-14T00:09:08.103Z,55
2023-05-14T00:09:36.313Z,55
2023-05-14T00:09:56.511Z,55
2023-05-14T00:10:28.752Z,54
2023-05-14T00:11:00.212Z,53
2023-05-14T00:11:32.574Z,53
2023-05-14T00:12:04.003Z,53
2023-05-14T00:12:36.157Z,53
2023-05-14T00:13:08.051Z,52
2023-05-14T00:13:36.743Z,52
2023-05-14T00:13:56.123Z,52
2023-05-14T00:14:28.383Z,52
2023-05-14T00:15:01.435Z,52
2023-05-14T00:15:34.224Z,51
2023-05-14T00:16:04.052Z,51
2023-05-14T00:16:36.367Z,51
2023-05-14T00:17:08.205Z,51
2023-05-14T00:17:36.283Z,51
2023-05-14T00:17:56.245Z,51
2023-05-14T00:18:28.227Z,50
2023-05-14T00:19:00.085Z,50
2023-05-14T00:19:32.200Z,49
2023-05-14T00:20:05.464Z,49
2023-05-14T00:20:36.042Z,50
2023-05-14T00:21:08.131Z,50
2023-05-14T00:21:36.719Z,50
2023-05-14T00:21:56.147Z,50
2023-05-14T00:22:28.336Z,49
2023-05-14T00:23:00.318Z,50
2023-05-14T00:23:32.189Z,49
2023-05-14T00:24:03.972Z,50
2023-05-14T00:24:36.120Z,51
2023-05-14T00:25:08.495Z,51
2023-05-14T00:25:36.405Z,52
2023-05-14T00:25:56.564Z,52
2023-05-14T00:26:28.495Z,52
2023-05-14T00:27:00.180Z,53
2023-05-14T00:27:32.495Z,53
2023-05-14T00:28:04.036Z,54
2023-05-14T00:28:36.957Z,55
2023-05-14T00:29:08.076Z,53
2023-05-14T00:29:36.687Z,53
2023-05-14T00:29:57.145Z,53
2023-05-14T00:30:29.117Z,53
2023-05-14T00:31:00.207Z,53
2023-05-14T00:31:32.279Z,54
2023-05-14T00:32:03.961Z,54
2023-05-14T00:32:36.169Z,52
2023-05-14T00:33:08.335Z,52
2023-05-14T00:33:36.197Z,53
2023-05-14T00:33:56.120Z,53
2023-05-14T00:34:28.309Z,53
2023-05-14T00:35:00.771Z,53
2023-05-14T00:35:32.245Z,53
2023-05-14T00:36:03.932Z,52
2023-05-14T00:36:36.932Z,53
2023-05-14T00:37:08.129Z,53
2023-05-14T00:37:36.575Z,52
2023-05-14T00:37:56.637Z,54
2023-05-14T00:38:28.286Z,54
2023-05-14T00:39:00.128Z,56
2023-05-14T00:39:32.308Z,58
2023-05-14T00:40:05.638Z,57
2023-05-14T00:40:36.446Z,57
2023-05-14T00:41:08.058Z,57
2023-05-14T00:41:36.651Z,56
2023-05-14T00:41:56.077Z,55
2023-05-14T00:42:28.409Z,58
2023-05-14T00:43:00.147Z,59
2023-05-14T00:43:32.211Z,59
2023-05-14T00:44:03.989Z,59
2023-05-14T00:44:36.109Z,58
2023-05-14T00:45:09.155Z,57
2023-05-14T00:45:36.468Z,57
2023-05-14T00:45:56.633Z,57
2023-05-14T00:46:28.428Z,57
2023-05-14T00:47:00.318Z,57
2023-05-14T00:47:32.212Z,57
2023-05-14T00:48:04.049Z,57
2023-05-14T00:48:36.091Z,56
2023-05-14T00:49:08.030Z,56
2023-05-14T00:49:36.144Z,56
2023-05-14T00:49:56.033Z,56
2023-05-14T00:50:28.865Z,57
2023-05-14T00:51:00.063Z,57
2023-05-14T00:51:32.350Z,57
2023-05-14T00:52:03.990Z,57
2023-05-14T00:52:36.459Z,57
2023-05-14T00:53:08.007Z,56
2023-05-14T00:53:36.160Z,55
2023-05-14T00:53:56.217Z,55
2023-05-14T00:54:28.933Z,55
2023-05-14T00:55:00.157Z,55
2023-05-14T00:55:32.669Z,54
2023-05-14T00:56:03.983Z,54
2023-05-14T00:56:36.290Z,54
2023-05-14T00:57:08.033Z,53
2023-05-14T00:57:36.118Z,53
2023-05-14T00:57:56.132Z,51
2023-05-14T00:58:28.309Z,51
2023-05-14T00:59:00.146Z,50
2023-05-14T00:59:32.612Z,49
2023-05-14T01:00:06.065Z,47
2023-05-14T01:00:36.325Z,46
2023-05-14T01:01:08.754Z,46
2023-05-14T01:01:56.135Z,47
2023-05-14T01:02:28.388Z,47
2023-05-14T01:03:00.158Z,48
2023-05-14T01:03:33.071Z,48
2023-05-14T01:04:03.995Z,48
2023-05-14T01:04:36.260Z,48
2023-05-14T01:05:08.592Z,48
2023-05-14T01:05:36.180Z,50
2023-05-14T01:05:56.620Z,51
2023-05-14T01:06:28.490Z,51
2023-05-14T01:07:00.154Z,51
2023-05-14T01:07:32.178Z,52
2023-05-14T01:08:03.955Z,53
2023-05-14T01:08:36.512Z,53
2023-05-14T01:09:08.298Z,54
2023-05-14T01:09:36.515Z,55
2023-05-14T01:09:56.066Z,55
2023-05-14T01:10:28.848Z,57
2023-05-14T01:11:00.140Z,58
2023-05-14T01:11:32.276Z,58
2023-05-14T01:12:03.935Z,58
2023-05-14T01:12:36.142Z,57
2023-05-14T01:13:08.078Z,56
2023-05-14T01:13:36.135Z,56
2023-05-14T01:13:56.027Z,56
2023-05-14T01:14:28.314Z,55
2023-05-14T01:15:00.167Z,55
2023-05-14T01:15:33.271Z,54
2023-05-14T01:16:03.937Z,53
2023-05-14T01:16:36.986Z,53
2023-05-14T01:17:07.983Z,52
2023-05-14T01:17:36.159Z,51
2023-05-14T01:17:56.319Z,50
2023-05-14T01:18:28.371Z,49
2023-05-14T01:19:00.216Z,49
2023-05-14T01:19:32.613Z,49
2023-05-14T01:20:05.567Z,49
2023-05-14T01:20:36.273Z,48
2023-05-14T01:21:08.065Z,48
2023-05-14T01:21:36.260Z,49
2023-05-14T01:21:56.216Z,48
2023-05-14T01:22:28.363Z,48
2023-05-14T01:23:00.229Z,48
2023-05-14T01:23:32.209Z,48
2023-05-14T01:24:03.884Z,49
2023-05-14T01:24:36.554Z,49
2023-05-14T01:25:08.534Z,49
2023-05-14T01:25:36.143Z,49
2023-05-14T01:25:56.561Z,49
2023-05-14T01:26:28.561Z,50
2023-05-14T01:27:00.187Z,51
2023-05-14T01:27:32.434Z,52
2023-05-14T01:28:04.048Z,52
2023-05-14T01:28:36.464Z,53
2023-05-14T01:29:08.073Z,52
2023-05-14T01:29:36.220Z,51
2023-05-14T01:29:56.448Z,52
2023-05-14T01:30:30.959Z,52
2023-05-14T01:31:00.225Z,52
2023-05-14T01:31:32.297Z,52
2023-05-14T01:32:04.070Z,52
2023-05-14T01:32:36.274Z,53
2023-05-14T01:33:08.183Z,54
2023-05-14T01:33:36.147Z,55
2023-05-14T01:33:56.353Z,54
2023-05-14T01:34:28.364Z,55
2023-05-14T01:35:00.172Z,56
2023-05-14T01:35:32.794Z,58
2023-05-14T01:36:03.989Z,58
2023-05-14T01:36:36.228Z,59
2023-05-14T01:37:09.590Z,60
2023-05-14T01:37:36.216Z,59
2023-05-14T01:37:56.223Z,61
2023-05-14T01:38:28.391Z,62
2023-05-14T01:39:00.548Z,63
2023-05-14T01:39:32.526Z,64
2023-05-14T01:40:05.341Z,64
2023-05-14T01:40:36.307Z,64
2023-05-14T01:41:08.047Z,65
2023-05-14T01:41:36.224Z,64
2023-05-14T01:41:56.394Z,64
2023-05-14T01:42:28.400Z,63
2023-05-14T01:43:00.367Z,62
2023-05-14T01:43:32.365Z,62
2023-05-14T01:44:03.965Z,62
2023-05-14T01:44:36.272Z,62
2023-05-14T01:45:09.023Z,62
2023-05-14T01:45:36.323Z,60
2023-05-14T01:45:56.807Z,60
2023-05-14T01:46:28.357Z,60
2023-05-14T01:47:00.231Z,58
2023-05-14T01:47:32.286Z,58
2023-05-14T01:48:03.956Z,57
2023-05-14T01:48:36.336Z,56
2023-05-14T01:49:08.031Z,56
2023-05-14T01:49:36.193Z,55
2023-05-14T01:49:56.201Z,55
2023-05-14T01:50:28.821Z,56
2023-05-14T01:51:00.240Z,55
2023-05-14T01:51:32.273Z,56
2023-05-14T01:52:04.009Z,57
2023-05-14T01:52:36.238Z,58
2023-05-14T01:53:08.023Z,58
2023-05-14T01:53:36.656Z,58
2023-05-14T01:53:56.785Z,58
2023-05-14T01:54:28.127Z,58
2023-05-14T01:55:00.170Z,58
2023-05-14T01:55:32.651Z,58
2023-05-14T01:56:03.900Z,57
2023-05-14T01:56:36.889Z,57
2023-05-14T01:57:08.058Z,56
2023-05-14T01:57:36.706Z,56
2023-05-14T01:57:56.253Z,55
2023-05-14T01:58:28.156Z,53
2023-05-14T01:59:00.247Z,53
2023-05-14T01:59:32.252Z,52
2023-05-14T02:00:06.156Z,51
2023-05-14T02:00:36.233Z,50
2023-05-14T02:01:08.817Z,50
2023-05-14T02:01:36.395Z,49
2023-05-14T02:01:56.279Z,48
2023-05-14T02:02:28.410Z,47
2023-05-14T02:03:00.570Z,47
2023-05-14T02:03:32.242Z,46
2023-05-14T02:04:04.064Z,45
2023-05-14T02:04:36.603Z,45
2023-05-14T02:05:08.485Z,45
2023-05-14T02:05:36.169Z,43
2023-05-14T02:05:56.658Z,43
2023-05-14T02:06:28.396Z,43
2023-05-14T02:07:00.235Z,43
2023-05-14T02:07:32.298Z,43
2023-05-14T02:08:03.932Z,42
2023-05-14T02:08:36.216Z,44
2023-05-14T02:09:08.053Z,43
2023-05-14T02:09:36.339Z,44
2023-05-14T02:09:56.132Z,44
2023-05-14T02:10:28.726Z,44
2023-05-14T02:11:00.243Z,42
2023-05-14T02:11:32.547Z,42
2023-05-14T02:12:04.317Z,42
2023-05-14T02:12:36.169Z,42
2023-05-14T02:13:08.066Z,42
2023-05-14T02:13:36.231Z,43
2023-05-14T02:13:56.225Z,43
2023-05-14T02:14:28.430Z,43
2023-05-14T02:15:01.344Z,43
2023-05-14T02:15:32.409Z,45
2023-05-14T02:16:03.982Z,45
2023-05-14T02:16:36.196Z,46
2023-05-14T02:17:07.980Z,46
2023-05-14T02:17:36.981Z,47
2023-05-14T02:17:56.177Z,47
2023-05-14T02:18:28.146Z,48
2023-05-14T02:19:00.181Z,48
2023-05-14T02:19:32.357Z,48
2023-05-14T02:20:05.399Z,48
2023-05-14T02:20:36.330Z,48
2023-05-14T02:21:08.416Z,48
2023-05-14T02:21:36.117Z,48
2023-05-14T02:21:57.022Z,48
2023-05-14T02:22:28.441Z,47
2023-05-14T02:23:00.280Z,47
2023-05-14T02:23:41.146Z,47
2023-05-14T02:24:03.967Z,47
2023-05-14T02:24:36.153Z,46
2023-05-14T02:25:08.754Z,46
2023-05-14T02:25:36.891Z,46
2023-05-14T02:25:56.732Z,46
2023-05-14T02:26:28.437Z,45
2023-05-14T02:27:00.250Z,45
2023-05-14T02:27:32.301Z,45
2023-05-14T02:28:04.016Z,45
2023-05-14T02:28:36.302Z,45
2023-05-14T02:29:08.075Z,44
2023-05-14T02:29:36.220Z,44
2023-05-14T02:29:56.174Z,44
2023-05-14T02:30:29.214Z,45
2023-05-14T02:31:00.286Z,47
2023-05-14T02:31:32.471Z,47
2023-05-14T02:32:03.980Z,48
2023-05-14T02:32:36.264Z,48
2023-05-14T02:33:08.194Z,48
2023-05-14T02:33:36.547Z,49
2023-05-14T02:33:56.131Z,49
2023-05-14T02:34:28.203Z,50
2023-05-14T02:35:00.170Z,50
2023-05-14T02:35:32.665Z,50
2023-05-14T02:36:03.951Z,50
2023-05-14T02:36:36.150Z,50
2023-05-14T02:37:08.056Z,51
2023-05-14T02:37:36.172Z,51
2023-05-14T02:37:56.148Z,52
2023-05-14T02:38:28.255Z,52
2023-05-14T02:39:00.138Z,53
2023-05-14T02:39:32.366Z,52
2023-05-14T02:40:05.456Z,53
2023-05-14T02:40:36.162Z,53
2023-05-14T02:41:08.055Z,53
2023-05-14T02:41:36.131Z,53
2023-05-14T02:41:56.173Z,54
2023-05-14T02:42:28.258Z,54
2023-05-14T02:43:00.023Z,54
2023-05-14T02:43:32.153Z,54
2023-05-14T02:44:03.835Z,55
2023-05-14T02:44:36.063Z,54
2023-05-14T02:45:09.006Z,55
2023-05-14T02:45:36.537Z,55
2023-05-14T02:45:56.578Z,56
2023-05-14T02:46:28.318Z,57
2023-05-14T02:47:00.363Z,57
2023-05-14T02:47:32.130Z,57
2023-05-14T02:48:04.022Z,58
2023-05-14T02:48:36.478Z,59
2023-05-14T02:49:07.991Z,60
2023-05-14T02:49:36.238Z,61
2023-05-14T02:49:56.211Z,62
2023-05-14T02:50:28.594Z,62
2023-05-14T02:51:00.167Z,62
2023-05-14T02:51:32.347Z,62
2023-05-14T02:52:03.856Z,62
2023-05-14T02:52:36.581Z,62
2023-05-14T02:53:08.283Z,61
2023-05-14T02:53:36.556Z,61
2023-05-14T02:53:56.398Z,61
2023-05-14T02:54:28.496Z,61
2023-05-14T02:55:00.671Z,61
2023-05-14T02:55:32.261Z,61
2023-05-14T02:56:03.979Z,61
2023-05-14T02:56:36.259Z,61
2023-05-14T02:57:08.270Z,61
2023-05-14T02:57:36.216Z,60
2023-05-14T02:57:56.140Z,59
2023-05-14T02:58:28.675Z,58
2023-05-14T02:59:00.220Z,57
2023-05-14T02:59:32.224Z,57
2023-05-14T03:00:06.041Z,56
2023-05-14T03:00:36.295Z,56
2023-05-14T03:01:08.544Z,56
2023-05-14T03:01:36.266Z,56
2023-05-14T03:01:56.263Z,55
2023-05-14T03:02:28.399Z,55
2023-05-14T03:03:00.213Z,55
2023-05-14T03:03:32.456Z,55
2023-05-14T03:04:03.971Z,55
2023-05-14T03:04:36.152Z,55
2023-05-14T03:05:08.499Z,54
2023-05-14T03:05:36.185Z,54
2023-05-14T03:05:56.598Z,54
2023-05-14T03:06:28.878Z,54
2023-05-14T03:07:00.356Z,52
2023-05-14T03:07:32.272Z,53
2023-05-14T03:08:03.989Z,54
2023-05-14T03:08:36.387Z,53
2023-05-14T03:09:08.334Z,54
2023-05-14T03:09:38.141Z,53
2023-05-14T03:09:56.259Z,54
2023-05-14T03:10:29.315Z,54
2023-05-14T03:11:00.194Z,54
2023-05-14T03:11:32.184Z,55
2023-05-14T03:12:04.037Z,55
2023-05-14T03:12:36.217Z,55
2023-05-14T03:13:08.049Z,56
2023-05-14T03:13:36.252Z,56
2023-05-14T03:13:56.546Z,56
2023-05-14T03:14:28.258Z,56
2023-05-14T03:15:00.162Z,57
2023-05-14T03:15:33.543Z,57
2023-05-14T03:16:04.087Z,57
2023-05-14T03:16:36.650Z,54
2023-05-14T03:17:08.128Z,56
2023-05-14T03:17:36.407Z,56
2023-05-14T03:17:56.355Z,55
2023-05-14T03:18:28.360Z,55
2023-05-14T03:19:00.249Z,54
2023-05-14T03:19:32.832Z,53
2023-05-14T03:20:05.550Z,53
2023-05-14T03:20:36.241Z,51
2023-05-14T03:21:08.431Z,52
2023-05-14T03:21:36.391Z,51
2023-05-14T03:21:56.228Z,48
2023-05-14T03:22:28.349Z,48
2023-05-14T03:23:00.174Z,48
2023-05-14T03:23:32.410Z,48
2023-05-14T03:24:04.270Z,47
2023-05-14T03:24:36.805Z,49
2023-05-14T03:25:08.756Z,48
2023-05-14T03:25:36.782Z,47
2023-05-14T03:25:56.833Z,47
2023-05-14T03:26:28.539Z,49
2023-05-14T03:27:00.602Z,49
2023-05-14T03:27:32.438Z,50
2023-05-14T03:28:04.109Z,51
2023-05-14T03:28:37.361Z,51
2023-05-14T03:29:08.222Z,51
2023-05-14T03:29:36.404Z,53
2023-05-14T03:29:56.593Z,53
2023-05-14T03:30:29.493Z,54
2023-05-14T03:31:00.406Z,53
2023-05-14T03:31:32.347Z,54
2023-05-14T03:32:05.096Z,57
2023-05-14T03:32:36.335Z,57
2023-05-14T03:33:08.349Z,57
2023-05-14T03:33:36.353Z,57
2023-05-14T03:33:56.440Z,58
2023-05-14T03:34:28.480Z,58
2023-05-14T03:35:01.106Z,58
2023-05-14T03:35:32.520Z,59
2023-05-14T03:36:04.276Z,60
2023-05-14T03:36:36.401Z,60
2023-05-14T03:37:08.244Z,60
2023-05-14T03:37:36.502Z,60
2023-05-14T03:37:56.598Z,60
2023-05-14T03:38:28.520Z,61
2023-05-14T03:39:00.414Z,61
2023-05-14T03:39:32.480Z,61
2023-05-14T03:40:05.698Z,60
2023-05-14T03:40:36.991Z,60
2023-05-14T03:41:08.251Z,60
2023-05-14T03:41:36.360Z,60
2023-05-14T03:41:56.565Z,60
2023-05-14T03:42:28.535Z,60
2023-05-14T03:43:00.463Z,61
2023-05-14T03:43:32.395Z,60
2023-05-14T03:44:04.314Z,60
2023-05-14T03:44:36.444Z,61
2023-05-14T03:45:09.655Z,60
2023-05-14T03:45:36.717Z,61
2023-05-14T03:45:57.796Z,60
2023-05-14T03:46:28.721Z,61
2023-05-14T03:47:00.477Z,61
2023-05-14T03:47:32.555Z,61
2023-05-14T03:48:04.195Z,61
2023-05-14T03:48:36.388Z,61
2023-05-14T03:49:08.341Z,61
2023-05-14T03:49:36.658Z,61
2023-05-14T03:49:56.523Z,61
2023-05-14T03:50:28.994Z,62
2023-05-14T03:51:00.460Z,62
2023-05-14T03:51:32.364Z,61
2023-05-14T03:52:04.209Z,61
2023-05-14T03:52:36.387Z,61
2023-05-14T03:53:08.263Z,61
2023-05-14T03:53:36.442Z,61
2023-05-14T03:53:56.497Z,62
2023-05-14T03:54:28.580Z,60
2023-05-14T03:55:01.411Z,61
2023-05-14T03:55:32.812Z,60
2023-05-14T03:56:04.456Z,61
2023-05-14T03:56:36.425Z,61
2023-05-14T03:57:08.310Z,62
2023-05-14T03:57:36.566Z,62
2023-05-14T03:57:56.437Z,62
2023-05-14T03:58:28.496Z,61
2023-05-14T03:59:00.464Z,61
2023-05-14T03:59:32.533Z,63
2023-05-14T04:00:06.412Z,64
2023-05-14T04:00:37.344Z,64
2023-05-14T04:01:08.742Z,64
2023-05-14T04:01:36.430Z,65
2023-05-14T04:01:56.333Z,66
2023-05-14T04:02:28.477Z,65
2023-05-14T04:03:00.641Z,65
2023-05-14T04:03:32.677Z,66
2023-05-14T04:04:04.251Z,66
2023-05-14T04:04:36.594Z,66
2023-05-14T04:05:08.764Z,66
2023-05-14T04:05:36.430Z,66
2023-05-14T04:05:57.255Z,66
2023-05-14T04:06:28.690Z,66
2023-05-14T04:07:00.549Z,64
2023-05-14T04:07:32.495Z,63
2023-05-14T04:08:04.210Z,63
2023-05-14T04:08:36.425Z,64
2023-05-14T04:09:08.178Z,64
2023-05-14T04:09:37.225Z,63
2023-05-14T04:09:56.772Z,62
2023-05-14T04:10:28.817Z,62
2023-05-14T04:11:00.402Z,61
2023-05-14T04:11:32.434Z,61
2023-05-14T04:12:04.155Z,61
2023-05-14T04:12:36.766Z,61
2023-05-14T04:13:08.248Z,60
2023-05-14T04:13:36.406Z,60
2023-05-14T04:13:56.331Z,59
2023-05-14T04:14:28.542Z,59
2023-05-14T04:15:01.711Z,59
2023-05-14T04:15:32.915Z,59
2023-05-14T04:16:04.175Z,58
2023-05-14T04:16:36.857Z,58
2023-05-14T04:17:08.201Z,58
2023-05-14T04:17:36.467Z,59
2023-05-14T04:17:56.798Z,58
2023-05-14T04:18:28.588Z,58
2023-05-14T04:19:00.995Z,58
2023-05-14T04:19:32.402Z,58
2023-05-14T04:20:05.700Z,59
2023-05-14T04:20:36.460Z,58
2023-05-14T04:21:08.274Z,59
2023-05-14T04:21:36.442Z,60
2023-05-14T04:21:56.341Z,59
2023-05-14T04:22:28.408Z,60
2023-05-14T04:23:00.399Z,60
2023-05-14T04:23:32.808Z,60
2023-05-14T04:24:04.671Z,58
2023-05-14T04:24:36.502Z,59
2023-05-14T04:25:08.798Z,59
2023-05-14T04:25:37.388Z,59
2023-05-14T04:25:56.901Z,59
2023-05-14T04:26:28.457Z,61
2023-05-14T04:27:00.503Z,60
2023-05-14T04:27:32.421Z,60
2023-05-14T04:28:04.986Z,60
2023-05-14T04:28:36.443Z,60
2023-05-14T04:29:08.274Z,61
2023-05-14T04:29:36.525Z,62
2023-05-14T04:29:56.643Z,61
2023-05-14T04:30:29.345Z,61
2023-05-14T04:31:00.596Z,61
2023-05-14T04:31:32.901Z,61
2023-05-14T04:32:04.185Z,61
2023-05-14T04:32:37.736Z,62
2023-05-14T04:33:08.747Z,64
2023-05-14T04:33:36.557Z,66
2023-05-14T04:33:56.531Z,69
2023-05-14T04:34:28.388Z,68
2023-05-14T04:35:01.137Z,69
2023-05-14T04:35:32.527Z,70
2023-05-14T04:36:04.103Z,70
2023-05-14T04:36:37.141Z,70
2023-05-14T04:37:08.762Z,71
2023-05-14T04:37:36.872Z,70
2023-05-14T04:37:56.406Z,73
2023-05-14T04:38:28.581Z,73
2023-05-14T04:39:00.385Z,71
2023-05-14T04:39:32.394Z,71
2023-05-14T04:40:05.613Z,71
2023-05-14T04:40:36.484Z,72
2023-05-14T04:41:08.458Z,72
2023-05-14T04:41:36.611Z,70
2023-05-14T04:41:56.588Z,70
2023-05-14T04:42:28.405Z,70
2023-05-14T04:43:00.547Z,68
2023-05-14T04:43:32.600Z,67
2023-05-14T04:44:04.330Z,66
2023-05-14T04:44:36.502Z,67
2023-05-14T04:45:09.231Z,66
2023-05-14T04:45:36.552Z,66
2023-05-14T04:45:57.025Z,66
2023-05-14T04:46:28.564Z,68
2023-05-14T04:47:00.400Z,67
2023-05-14T04:47:32.694Z,68
2023-05-14T04:48:04.211Z,67
2023-05-14T04:48:36.866Z,65
2023-05-14T04:49:08.276Z,66
2023-05-14T04:49:36.544Z,65
2023-05-14T04:49:56.393Z,67
2023-05-14T04:50:28.792Z,68
2023-05-14T04:51:00.499Z,68
2023-05-14T04:51:32.512Z,70
2023-05-14T04:52:04.229Z,72
2023-05-14T04:52:36.546Z,71
2023-05-14T04:53:08.303Z,71
2023-05-14T04:53:36.531Z,72
2023-05-14T04:53:56.828Z,73
2023-05-14T04:54:28.531Z,72
2023-05-14T04:55:01.152Z,72
2023-05-14T04:55:32.670Z,70
2023-05-14T04:56:04.337Z,70
2023-05-14T04:56:36.624Z,68
2023-05-14T04:57:08.483Z,67
2023-05-14T04:57:36.682Z,66
2023-05-14T04:57:57.121Z,66
2023-05-14T04:58:28.328Z,67
2023-05-14T04:59:00.623Z,68
2023-05-14T04:59:32.584Z,68
2023-05-14T05:00:06.123Z,66
2023-05-14T05:00:36.510Z,64
2023-05-14T05:01:09.145Z,64
2023-05-14T05:01:37.001Z,62
2023-05-14T05:01:56.449Z,61
2023-05-14T05:02:28.673Z,60
2023-05-14T05:03:00.706Z,61
2023-05-14T05:03:32.544Z,60
2023-05-14T05:04:04.399Z,60
2023-05-14T05:04:36.454Z,60
2023-05-14T05:05:08.681Z,61
2023-05-14T05:05:36.411Z,62
2023-05-14T05:05:56.994Z,61
2023-05-14T05:06:28.391Z,61
2023-05-14T05:07:00.573Z,63
2023-05-14T05:07:32.500Z,64
2023-05-14T05:08:04.163Z,63
2023-05-14T05:08:36.423Z,64
2023-05-14T05:09:08.459Z,63
2023-05-14T05:09:37.308Z,63
2023-05-14T05:09:56.286Z,64
2023-05-14T05:10:28.923Z,65
2023-05-14T05:11:00.464Z,66
2023-05-14T05:11:32.342Z,65
2023-05-14T05:12:04.144Z,67
2023-05-14T05:12:36.513Z,67
2023-05-14T05:13:08.204Z,67
2023-05-14T05:13:36.671Z,66
2023-05-14T05:13:56.796Z,66
2023-05-14T05:14:28.519Z,67
2023-05-14T05:15:01.638Z,67
2023-05-14T05:15:32.550Z,67
2023-05-14T05:16:04.198Z,67
2023-05-14T05:16:36.508Z,68
2023-05-14T05:17:08.538Z,67
2023-05-14T05:17:36.690Z,67
2023-05-14T05:17:56.928Z,67
2023-05-14T05:18:28.995Z,67
2023-05-14T05:19:00.763Z,66
2023-05-14T05:19:43.259Z,65
2023-05-14T05:20:06.206Z,64
2023-05-14T05:20:36.620Z,65
2023-05-14T05:21:08.434Z,64
2023-05-14T05:21:36.751Z,64
2023-05-14T05:21:56.633Z,63
2023-05-14T05:22:29.029Z,63
2023-05-14T05:23:00.672Z,64
2023-05-14T05:23:32.683Z,65
2023-05-14T05:24:04.578Z,63
2023-05-14T05:24:37.390Z,62
2023-05-14T05:25:08.935Z,61
2023-05-14T05:25:36.801Z,61
2023-05-14T05:25:57.102Z,62
2023-05-14T05:26:28.531Z,61
2023-05-14T05:27:00.639Z,62
2023-05-14T05:27:33.161Z,62
2023-05-14T05:28:04.494Z,64
2023-05-14T05:28:36.830Z,62
2023-05-14T05:29:08.908Z,64
2023-05-14T05:29:36.632Z,65
2023-05-14T05:29:56.693Z,66
2023-05-14T05:30:29.624Z,68
2023-05-14T05:31:00.718Z,68
2023-05-14T05:31:32.961Z,69
2023-05-14T05:32:04.438Z,69
2023-05-14T05:32:36.735Z,70
2023-05-14T05:33:09.410Z,68
2023-05-14T05:33:37.068Z,68
2023-05-14T05:33:56.838Z,68
2023-05-14T05:34:28.583Z,68
2023-05-14T05:35:01.256Z,68
2023-05-14T05:35:32.657Z,70
2023-05-14T05:36:04.360Z,70
2023-05-14T05:36:37.241Z,72
2023-05-14T05:37:08.464Z,71
2023-05-14T05:37:37.127Z,70
2023-05-14T05:37:59.111Z,68
2023-05-14T05:38:28.757Z,69
2023-05-14T05:39:00.766Z,70
2023-05-14T05:39:33.077Z,70
2023-05-14T05:40:05.921Z,68
2023-05-14T05:40:37.018Z,68
2023-05-14T05:41:08.610Z,66
2023-05-14T05:41:36.886Z,65
2023-05-14T05:41:56.688Z,66
2023-05-14T05:42:28.701Z,65
2023-05-14T05:43:00.810Z,66
2023-05-14T05:43:32.779Z,66
2023-05-14T05:44:04.465Z,67
2023-05-14T05:44:37.159Z,66
2023-05-14T05:45:09.539Z,66
2023-05-14T05:45:36.832Z,65
2023-05-14T05:45:57.256Z,63
2023-05-14T05:46:28.857Z,62
2023-05-14T05:47:00.813Z,63
2023-05-14T05:47:32.854Z,64
2023-05-14T05:48:04.423Z,65
2023-05-14T05:48:36.713Z,67
2023-05-14T05:49:08.639Z,64
2023-05-14T05:49:36.726Z,63
2023-05-14T05:49:57.353Z,66
2023-05-14T05:50:29.243Z,66
2023-05-14T05:51:00.729Z,68
2023-05-14T05:51:32.748Z,68
2023-05-14T05:52:04.590Z,70
2023-05-14T05:52:36.718Z,69
2023-05-14T05:53:08.657Z,70
2023-05-14T05:53:37.263Z,71
2023-05-14T05:53:56.768Z,71
2023-05-14T05:54:28.599Z,71
2023-05-14T05:55:17.103Z,73
2023-05-14T05:55:38.215Z,74
2023-05-14T05:56:04.370Z,76
2023-05-14T05:56:36.624Z,76
2023-05-14T05:57:08.434Z,76
2023-05-14T05:57:36.691Z,77
2023-05-14T05:57:56.731Z,78
2023-05-14T05:58:28.623Z,77
2023-05-14T05:59:00.711Z,78
2023-05-14T05:59:32.677Z,78
2023-05-14T06:00:06.659Z,78
2023-05-14T06:00:36.980Z,80
2023-05-14T06:01:09.057Z,80
2023-05-14T06:01:37.225Z,79
2023-05-14T06:01:56.790Z,76
2023-05-14T06:02:29.185Z,76
2023-05-14T06:03:00.702Z,74
2023-05-14T06:03:32.921Z,75
2023-05-14T06:04:04.453Z,75
2023-05-14T06:04:36.919Z,77
2023-05-14T06:05:09.273Z,75
2023-05-14T06:05:36.740Z,74
2023-05-14T06:05:57.237Z,74
2023-05-14T06:06:29.020Z,74
2023-05-14T06:07:00.711Z,74
2023-05-14T06:07:32.602Z,72
2023-05-14T06:08:04.261Z,71
2023-05-14T06:08:37.351Z,71
2023-05-14T06:09:08.597Z,70
2023-05-14T06:09:36.720Z,69
2023-05-14T06:09:56.789Z,67
2023-05-14T06:10:29.052Z,65
2023-05-14T06:11:00.687Z,65
2023-05-14T06:11:32.769Z,69
2023-05-14T06:12:04.488Z,71
2023-05-14T06:12:36.829Z,73
2023-05-14T06:13:08.575Z,73
2023-05-14T06:13:36.781Z,71
2023-05-14T06:13:56.751Z,70
2023-05-14T06:14:28.755Z,71
2023-05-14T06:15:02.313Z,73
2023-05-14T06:15:32.758Z,72
2023-05-14T06:16:04.697Z,72
2023-05-14T06:16:36.748Z,74
2023-05-14T06:17:09.010Z,74
2023-05-14T06:17:36.771Z,76
2023-05-14T06:17:57.256Z,76
2023-05-14T06:18:28.630Z,77
2023-05-14T06:19:00.702Z,79
2023-05-14T06:19:32.765Z,80
2023-05-14T06:20:06.283Z,79
2023-05-14T06:20:36.842Z,80
2023-05-14T06:21:08.925Z,78
2023-05-14T06:21:36.771Z,77
2023-05-14T06:21:57.156Z,77
2023-05-14T06:22:28.570Z,76
2023-05-14T06:23:01.041Z,77
2023-05-14T06:23:32.741Z,78
2023-05-14T06:24:04.356Z,79
2023-05-14T06:24:36.990Z,75
2023-05-14T06:25:08.956Z,74
2023-05-14T06:25:36.898Z,74
2023-05-14T06:25:57.180Z,72
2023-05-14T06:26:28.837Z,71
2023-05-14T06:27:01.092Z,72
2023-05-14T06:27:32.853Z,74
2023-05-14T06:28:04.342Z,74
2023-05-14T06:28:36.915Z,74
2023-05-14T06:29:08.556Z,74
2023-05-14T06:29:36.750Z,73
2023-05-14T06:29:56.820Z,74
2023-05-14T06:30:29.619Z,72
2023-05-14T06:31:00.954Z,73
2023-05-14T06:31:33.104Z,73
2023-05-14T06:32:04.566Z,75
2023-05-14T06:32:37.159Z,78
2023-05-14T06:33:08.412Z,78
2023-05-14T06:33:36.795Z,80
2023-05-14T06:33:58.119Z,82
2023-05-14T06:34:28.584Z,84
2023-05-14T06:35:01.417Z,85
2023-05-14T06:35:32.780Z,84
2023-05-14T06:36:04.942Z,85
2023-05-14T06:36:36.936Z,86
2023-05-14T06:37:08.428Z,83
2023-05-14T06:37:36.792Z,81
2023-05-14T06:37:56.733Z,79
2023-05-14T06:38:28.562Z,79
2023-05-14T06:39:00.743Z,81
2023-05-14T06:39:32.713Z,79
2023-05-14T06:40:06.041Z,82
2023-05-14T06:40:36.602Z,82
2023-05-14T06:41:08.935Z,82
2023-05-14T06:41:36.684Z,81
2023-05-14T06:41:59.405Z,79
2023-05-14T06:42:28.842Z,76
2023-05-14T06:43:00.840Z,77
2023-05-14T06:43:32.862Z,74
2023-05-14T06:44:04.582Z,73
2023-05-14T06:44:36.761Z,73
2023-05-14T06:45:10.453Z,74
2023-05-14T06:45:36.726Z,73
2023-05-14T06:45:57.201Z,73
2023-05-14T06:46:28.853Z,72
2023-05-14T06:47:00.759Z,72
2023-05-14T06:47:32.978Z,74
2023-05-14T06:48:04.526Z,76
2023-05-14T06:48:36.869Z,75
2023-05-14T06:49:24.765Z,74
2023-05-14T06:49:37.721Z,74
2023-05-14T06:49:57.136Z,73
2023-05-14T06:50:29.353Z,71
2023-05-14T06:51:00.826Z,72
2023-05-14T06:51:32.711Z,73
2023-05-14T06:52:04.473Z,73
2023-05-14T06:52:36.937Z,73
2023-05-14T06:53:08.515Z,73
2023-05-14T06:53:36.967Z,74
2023-05-14T06:53:57.405Z,75
2023-05-14T06:54:29.419Z,73
2023-05-14T06:55:01.348Z,74
2023-05-14T06:55:32.881Z,75
2023-05-14T06:56:04.516Z,75
2023-05-14T06:56:36.916Z,76
2023-05-14T06:57:08.366Z,77
2023-05-14T06:57:39.870Z,75
2023-05-14T06:57:56.827Z,74
2023-05-14T06:58:29.038Z,74
2023-05-14T06:59:00.601Z,75
2023-05-14T06:59:32.890Z,77
2023-05-14T07:00:06.851Z,78
2023-05-14T07:00:36.914Z,80
2023-05-14T07:01:09.215Z,80
2023-05-14T07:01:36.819Z,81
2023-05-14T07:01:56.847Z,82
2023-05-14T07:02:29.317Z,82
2023-05-14T07:03:00.631Z,80
2023-05-14T07:03:32.774Z,79
2023-05-14T07:04:04.354Z,78
2023-05-14T07:04:36.817Z,79
2023-05-14T07:05:09.014Z,78
2023-05-14T07:05:36.738Z,80
2023-05-14T07:05:57.148Z,79
2023-05-14T07:06:28.679Z,79
2023-05-14T07:07:00.704Z,78
2023-05-14T07:07:32.815Z,80
2023-05-14T07:08:04.313Z,83